首页
METAR-TAF:

METAR-TAF

机场 :

Moose Lake Carlton County Airport

Moose Lake, 明尼蘇達州, 美国

纬度: 46-25N, 经度: 092-48W, 海拔: 328米

当前天气观测

该预报发布于32分钟前的14:39 UTC
风速6节,风向西转西北
温度 15°C
湿度 77%
气压 1010 hPa
能見度: 16.1公里
散云层高于1800英尺

METAR: KMZH 221439Z AUTO 29006KT 10SM SCT018 15/11 A2983 RMK AO2

时间: 10:11 (15:11 UTC)


TAF: 丢失

超过4000个机场的气象观测和天气预报(METAR&TAF报告)。

可查询的气象台以黄色和红色小点在地图上表示。

将鼠标移到小点上方,可查看气象台名称。

然后点击查看天气观测和预报。

如需切换地图:点击带黑十字的绿色按钮放大地图;点击带横线的绿色按钮缩小地图;或者点击绿色箭头查看邻近地区的地图。


METAR-TAF: